sensor_id;sensor_type;location;lat;lon;timestamp;temperature;humidity
33927;DHT22;20485;50.992;5.550;2023-02-01T00:00:10;3.90;99.90
33927;DHT22;20485;50.992;5.550;2023-02-01T00:02:37;3.90;99.90
33927;DHT22;20485;50.992;5.550;2023-02-01T00:05:09;3.90;99.90
33927;DHT22;20485;50.992;5.550;2023-02-01T00:07:36;4.00;99.90
33927;DHT22;20485;50.992;5.550;2023-02-01T00:10:02;4.00;99.90
33927;DHT22;20485;50.992;5.550;2023-02-01T00:12:29;4.00;99.90
33927;DHT22;20485;50.992;5.550;2023-02-01T00:14:58;4.00;99.90
33927;DHT22;20485;50.992;5.550;2023-02-01T00:17:27;4.00;99.90
33927;DHT22;20485;50.992;5.550;2023-02-01T00:19:54;3.90;99.90
33927;DHT22;20485;50.992;5.550;2023-02-01T00:22:20;3.90;99.90
33927;DHT22;20485;50.992;5.550;2023-02-01T00:24:45;3.80;99.90
33927;DHT22;20485;50.992;5.550;2023-02-01T00:27:12;3.80;99.90
33927;DHT22;20485;50.992;5.550;2023-02-01T00:29:43;3.70;99.90
33927;DHT22;20485;50.992;5.550;2023-02-01T00:32:10;3.60;99.90
33927;DHT22;20485;50.992;5.550;2023-02-01T00:34:36;3.50;99.90
33927;DHT22;20485;50.992;5.550;2023-02-01T00:37:02;3.50;99.90
33927;DHT22;20485;50.992;5.550;2023-02-01T00:39:27;3.40;99.90
33927;DHT22;20485;50.992;5.550;2023-02-01T00:41:54;4.00;99.90
33927;DHT22;20485;50.992;5.550;2023-02-01T00:44:20;3.20;99.90
33927;DHT22;20485;50.992;5.550;2023-02-01T00:46:45;3.20;99.90
33927;DHT22;20485;50.992;5.550;2023-02-01T00:49:11;3.10;99.90
33927;DHT22;20485;50.992;5.550;2023-02-01T00:51:38;3.10;99.90
33927;DHT22;20485;50.992;5.550;2023-02-01T00:54:04;3.00;99.90
33927;DHT22;20485;50.992;5.550;2023-02-01T00:56:29;3.00;99.90
33927;DHT22;20485;50.992;5.550;2023-02-01T00:58:55;2.90;99.90
33927;DHT22;20485;50.992;5.550;2023-02-01T01:01:24;2.90;99.90
33927;DHT22;20485;50.992;5.550;2023-02-01T01:03:55;3.00;99.90
33927;DHT22;20485;50.992;5.550;2023-02-01T01:06:28;4.60;99.90
33927;DHT22;20485;50.992;5.550;2023-02-01T01:08:56;3.20;99.90
33927;DHT22;20485;50.992;5.550;2023-02-01T01:11:27;3.30;99.90
33927;DHT22;20485;50.992;5.550;2023-02-01T01:13:54;3.40;99.90
33927;DHT22;20485;50.992;5.550;2023-02-01T01:16:23;3.50;99.90
33927;DHT22;20485;50.992;5.550;2023-02-01T01:18:52;3.50;99.90
33927;DHT22;20485;50.992;5.550;2023-02-01T01:21:18;3.60;99.90
33927;DHT22;20485;50.992;5.550;2023-02-01T01:23:45;3.60;99.90
33927;DHT22;20485;50.992;5.550;2023-02-01T01:26:17;3.70;99.90
33927;DHT22;20485;50.992;5.550;2023-02-01T01:28:43;3.70;99.90
33927;DHT22;20485;50.992;5.550;2023-02-01T01:31:16;3.80;99.90
33927;DHT22;20485;50.992;5.550;2023-02-01T01:33:42;3.80;99.90
33927;DHT22;20485;50.992;5.550;2023-02-01T01:36:11;3.80;99.90
33927;DHT22;20485;50.992;5.550;2023-02-01T01:38:40;3.90;99.90
33927;DHT22;20485;50.992;5.550;2023-02-01T01:41:08;3.90;99.90
33927;DHT22;20485;50.992;5.550;2023-02-01T01:44:06;4.00;99.90
33927;DHT22;20485;50.992;5.550;2023-02-01T01:46:36;4.00;99.90
33927;DHT22;20485;50.992;5.550;2023-02-01T01:49:14;4.00;99.90
33927;DHT22;20485;50.992;5.550;2023-02-01T01:54:27;3.90;99.90
33927;DHT22;20485;50.992;5.550;2023-02-01T01:56:59;3.80;99.90
33927;DHT22;20485;50.992;5.550;2023-02-01T01:59:29;3.70;99.90
33927;DHT22;20485;50.992;5.550;2023-02-01T02:01:57;3.70;99.90
33927;DHT22;20485;50.992;5.550;2023-02-01T02:04:26;3.70;99.90
33927;DHT22;20485;50.992;5.550;2023-02-01T02:06:59;3.70;99.90
33927;DHT22;20485;50.992;5.550;2023-02-01T02:09:28;3.70;99.90
33927;DHT22;20485;50.992;5.550;2023-02-01T02:11:55;3.80;99.90
33927;DHT22;20485;50.992;5.550;2023-02-01T02:14:22;3.80;99.90
33927;DHT22;20485;50.992;5.550;2023-02-01T02:16:59;4.10;99.90
33927;DHT22;20485;50.992;5.550;2023-02-01T02:28:24;3.90;99.90
33927;DHT22;20485;50.992;5.550;2023-02-01T02:34:07;3.80;99.90
33927;DHT22;20485;50.992;5.550;2023-02-01T02:45:09;3.70;99.90
33927;DHT22;20485;50.992;5.550;2023-02-01T02:48:22;3.70;99.90
33927;DHT22;20485;50.992;5.550;2023-02-01T03:23:49;3.70;99.90
33927;DHT22;20485;50.992;5.550;2023-02-01T03:26:17;3.60;99.90
33927;DHT22;20485;50.992;5.550;2023-02-01T03:28:51;3.60;99.90
33927;DHT22;20485;50.992;5.550;2023-02-01T03:31:22;3.60;99.90
33927;DHT22;20485;50.992;5.550;2023-02-01T03:33:48;3.50;99.90
33927;DHT22;20485;50.992;5.550;2023-02-01T03:41:49;3.50;99.90
33927;DHT22;20485;50.992;5.550;2023-02-01T03:47:30;3.40;99.90
33927;DHT22;20485;50.992;5.550;2023-02-01T03:50:02;3.40;99.90
33927;DHT22;20485;50.992;5.550;2023-02-01T03:52:56;3.40;99.90
33927;DHT22;20485;50.992;5.550;2023-02-01T03:55:25;3.50;99.90
33927;DHT22;20485;50.992;5.550;2023-02-01T03:58:13;3.50;99.90
33927;DHT22;20485;50.992;5.550;2023-02-01T04:00:49;3.40;99.90
33927;DHT22;20485;50.992;5.550;2023-02-01T04:03:17;3.40;99.90
33927;DHT22;20485;50.992;5.550;2023-02-01T04:05:44;3.40;99.90
33927;DHT22;20485;50.992;5.550;2023-02-01T04:08:10;5.30;99.90
33927;DHT22;20485;50.992;5.550;2023-02-01T04:10:35;3.60;99.90
33927;DHT22;20485;50.992;5.550;2023-02-01T04:13:15;3.60;99.90
33927;DHT22;20485;50.992;5.550;2023-02-01T04:15:41;3.60;99.90
33927;DHT22;20485;50.992;5.550;2023-02-01T04:18:07;3.60;99.90
33927;DHT22;20485;50.992;5.550;2023-02-01T04:20:33;3.60;99.90
33927;DHT22;20485;50.992;5.550;2023-02-01T04:30:16;3.70;99.90
33927;DHT22;20485;50.992;5.550;2023-02-01T04:32:48;3.80;99.90
33927;DHT22;20485;50.992;5.550;2023-02-01T04:35:14;3.70;99.90
33927;DHT22;20485;50.992;5.550;2023-02-01T04:37:41;3.70;99.90
33927;DHT22;20485;50.992;5.550;2023-02-01T04:40:09;3.70;99.90
33927;DHT22;20485;50.992;5.550;2023-02-01T04:42:37;3.70;99.90
33927;DHT22;20485;50.992;5.550;2023-02-01T04:45:04;3.70;99.90
33927;DHT22;20485;50.992;5.550;2023-02-01T04:47:30;3.70;99.90
33927;DHT22;20485;50.992;5.550;2023-02-01T04:49:59;3.60;99.90
33927;DHT22;20485;50.992;5.550;2023-02-01T04:52:32;3.60;99.90
33927;DHT22;20485;50.992;5.550;2023-02-01T04:55:05;3.70;99.90
33927;DHT22;20485;50.992;5.550;2023-02-01T04:57:31;3.50;99.90
33927;DHT22;20485;50.992;5.550;2023-02-01T04:59:56;3.50;99.90
33927;DHT22;20485;50.992;5.550;2023-02-01T05:02:23;3.40;99.90
33927;DHT22;20485;50.992;5.550;2023-02-01T05:05:03;3.40;99.90
33927;DHT22;20485;50.992;5.550;2023-02-01T05:07:36;3.40;99.90
33927;DHT22;20485;50.992;5.550;2023-02-01T05:10:02;3.30;99.90
33927;DHT22;20485;50.992;5.550;2023-02-01T05:12:31;3.30;99.90
33927;DHT22;20485;50.992;5.550;2023-02-01T05:15:15;4.80;99.90
33927;DHT22;20485;50.992;5.550;2023-02-01T05:17:41;3.30;99.90
33927;DHT22;20485;50.992;5.550;2023-02-01T05:20:09;3.30;99.90
33927;DHT22;20485;50.992;5.550;2023-02-01T05:22:38;3.30;99.90
33927;DHT22;20485;50.992;5.550;2023-02-01T05:25:04;3.30;99.90
33927;DHT22;20485;50.992;5.550;2023-02-01T05:27:31;3.30;99.90
33927;DHT22;20485;50.992;5.550;2023-02-01T05:29:57;3.60;99.90
33927;DHT22;20485;50.992;5.550;2023-02-01T05:32:22;3.20;99.90
33927;DHT22;20485;50.992;5.550;2023-02-01T05:34:48;3.20;99.90
33927;DHT22;20485;50.992;5.550;2023-02-01T05:37:14;3.30;99.90
33927;DHT22;20485;50.992;5.550;2023-02-01T05:39:40;3.30;99.90
33927;DHT22;20485;50.992;5.550;2023-02-01T05:42:06;3.30;99.90
33927;DHT22;20485;50.992;5.550;2023-02-01T05:44:45;3.30;99.90
33927;DHT22;20485;50.992;5.550;2023-02-01T05:47:18;3.20;99.90
33927;DHT22;20485;50.992;5.550;2023-02-01T05:49:54;3.20;99.90
33927;DHT22;20485;50.992;5.550;2023-02-01T05:52:28;3.30;99.90
33927;DHT22;20485;50.992;5.550;2023-02-01T05:54:54;3.40;99.90
33927;DHT22;20485;50.992;5.550;2023-02-01T05:57:21;3.30;99.90
33927;DHT22;20485;50.992;5.550;2023-02-01T05:59:51;3.30;99.90
33927;DHT22;20485;50.992;5.550;2023-02-01T06:02:20;3.30;99.90
33927;DHT22;20485;50.992;5.550;2023-02-01T06:04:49;3.30;99.90
33927;DHT22;20485;50.992;5.550;2023-02-01T06:07:14;3.30;99.90
33927;DHT22;20485;50.992;5.550;2023-02-01T06:09:40;3.30;99.90
33927;DHT22;20485;50.992;5.550;2023-02-01T06:12:07;3.30;99.90
33927;DHT22;20485;50.992;5.550;2023-02-01T06:14:33;3.30;99.90
33927;DHT22;20485;50.992;5.550;2023-02-01T06:17:01;3.20;99.90
33927;DHT22;20485;50.992;5.550;2023-02-01T06:19:29;3.30;99.90
33927;DHT22;20485;50.992;5.550;2023-02-01T06:21:55;3.20;99.90
33927;DHT22;20485;50.992;5.550;2023-02-01T06:24:23;3.20;99.90
33927;DHT22;20485;50.992;5.550;2023-02-01T06:26:51;3.20;99.90
33927;DHT22;20485;50.992;5.550;2023-02-01T06:29:25;3.20;99.90
33927;DHT22;20485;50.992;5.550;2023-02-01T06:31:52;3.20;99.90
33927;DHT22;20485;50.992;5.550;2023-02-01T06:34:36;3.20;99.90
33927;DHT22;20485;50.992;5.550;2023-02-01T06:37:19;3.20;99.90
33927;DHT22;20485;50.992;5.550;2023-02-01T06:39:50;3.20;99.90
33927;DHT22;20485;50.992;5.550;2023-02-01T06:42:23;3.20;99.90
33927;DHT22;20485;50.992;5.550;2023-02-01T06:45:00;3.20;99.90
33927;DHT22;20485;50.992;5.550;2023-02-01T06:47:27;3.20;99.90
33927;DHT22;20485;50.992;5.550;2023-02-01T06:49:55;3.20;99.90
33927;DHT22;20485;50.992;5.550;2023-02-01T06:52:22;3.20;99.90
33927;DHT22;20485;50.992;5.550;2023-02-01T06:54:48;3.20;99.90
33927;DHT22;20485;50.992;5.550;2023-02-01T06:57:17;3.20;99.90
33927;DHT22;20485;50.992;5.550;2023-02-01T06:59:44;3.20;99.90
33927;DHT22;20485;50.992;5.550;2023-02-01T07:09:51;3.20;99.90
33927;DHT22;20485;50.992;5.550;2023-02-01T07:12:18;3.30;99.90
33927;DHT22;20485;50.992;5.550;2023-02-01T07:14:44;3.20;99.90
33927;DHT22;20485;50.992;5.550;2023-02-01T07:17:10;4.30;99.90
33927;DHT22;20485;50.992;5.550;2023-02-01T07:19:36;3.20;99.90
33927;DHT22;20485;50.992;5.550;2023-02-01T07:22:03;3.20;99.90
33927;DHT22;20485;50.992;5.550;2023-02-01T07:24:29;3.20;99.90
33927;DHT22;20485;50.992;5.550;2023-02-01T07:26:55;3.10;99.90
33927;DHT22;20485;50.992;5.550;2023-02-01T07:29:22;3.00;99.90
33927;DHT22;20485;50.992;5.550;2023-02-01T07:31:48;3.00;99.90
33927;DHT22;20485;50.992;5.550;2023-02-01T07:34:13;3.00;99.90
33927;DHT22;20485;50.992;5.550;2023-02-01T07:36:39;3.00;99.90
33927;DHT22;20485;50.992;5.550;2023-02-01T07:39:06;3.00;99.90
33927;DHT22;20485;50.992;5.550;2023-02-01T07:41:32;2.90;99.90
33927;DHT22;20485;50.992;5.550;2023-02-01T07:43:58;2.90;99.90
33927;DHT22;20485;50.992;5.550;2023-02-01T07:46:24;4.20;99.90
33927;DHT22;20485;50.992;5.550;2023-02-01T07:48:52;2.80;99.90
33927;DHT22;20485;50.992;5.550;2023-02-01T07:51:17;2.80;99.90
33927;DHT22;20485;50.992;5.550;2023-02-01T07:53:44;2.80;99.90
33927;DHT22;20485;50.992;5.550;2023-02-01T07:56:19;2.80;99.90
33927;DHT22;20485;50.992;5.550;2023-02-01T07:58:50;2.90;99.90
33927;DHT22;20485;50.992;5.550;2023-02-01T08:01:21;2.90;99.90
33927;DHT22;20485;50.992;5.550;2023-02-01T08:03:52;2.90;99.90
33927;DHT22;20485;50.992;5.550;2023-02-01T08:06:21;3.00;99.90
33927;DHT22;20485;50.992;5.550;2023-02-01T08:08:48;3.00;99.90
33927;DHT22;20485;50.992;5.550;2023-02-01T08:11:15;3.00;99.90
33927;DHT22;20485;50.992;5.550;2023-02-01T08:13:41;2.90;99.90
33927;DHT22;20485;50.992;5.550;2023-02-01T08:16:09;3.00;99.90
33927;DHT22;20485;50.992;5.550;2023-02-01T08:18:37;3.10;99.90
33927;DHT22;20485;50.992;5.550;2023-02-01T08:21:11;3.20;99.90
33927;DHT22;20485;50.992;5.550;2023-02-01T08:23:38;3.20;99.90
33927;DHT22;20485;50.992;5.550;2023-02-01T08:26:07;3.30;99.90
33927;DHT22;20485;50.992;5.550;2023-02-01T08:28:33;3.40;99.90
33927;DHT22;20485;50.992;5.550;2023-02-01T08:31:08;3.40;99.90
33927;DHT22;20485;50.992;5.550;2023-02-01T08:33:34;3.50;99.90
33927;DHT22;20485;50.992;5.550;2023-02-01T08:36:02;3.50;99.90
33927;DHT22;20485;50.992;5.550;2023-02-01T08:38:28;3.50;99.90
33927;DHT22;20485;50.992;5.550;2023-02-01T08:40:54;4.50;99.90
33927;DHT22;20485;50.992;5.550;2023-02-01T08:43:20;3.70;99.90
33927;DHT22;20485;50.992;5.550;2023-02-01T08:45:45;3.80;99.90
33927;DHT22;20485;50.992;5.550;2023-02-01T08:48:11;3.90;99.90
33927;DHT22;20485;50.992;5.550;2023-02-01T08:50:39;4.90;99.90
33927;DHT22;20485;50.992;5.550;2023-02-01T08:53:05;4.00;99.90
33927;DHT22;20485;50.992;5.550;2023-02-01T08:55:31;4.10;99.90
33927;DHT22;20485;50.992;5.550;2023-02-01T08:57:57;4.20;99.90
33927;DHT22;20485;50.992;5.550;2023-02-01T09:00:23;4.70;99.90
33927;DHT22;20485;50.992;5.550;2023-02-01T09:02:50;4.30;99.90
33927;DHT22;20485;50.992;5.550;2023-02-01T09:05:16;4.30;99.90
33927;DHT22;20485;50.992;5.550;2023-02-01T09:07:44;4.30;99.90
33927;DHT22;20485;50.992;5.550;2023-02-01T09:10:10;4.30;99.90
33927;DHT22;20485;50.992;5.550;2023-02-01T09:12:36;4.40;99.90
33927;DHT22;20485;50.992;5.550;2023-02-01T09:15:03;4.40;99.90
33927;DHT22;20485;50.992;5.550;2023-02-01T09:17:32;4.40;99.90
33927;DHT22;20485;50.992;5.550;2023-02-01T09:19:58;4.50;99.90
33927;DHT22;20485;50.992;5.550;2023-02-01T09:22:24;4.60;99.90
33927;DHT22;20485;50.992;5.550;2023-02-01T09:24:52;4.60;99.90
33927;DHT22;20485;50.992;5.550;2023-02-01T09:27:18;4.60;99.90
33927;DHT22;20485;50.992;5.550;2023-02-01T09:29:43;4.70;99.90
33927;DHT22;20485;50.992;5.550;2023-02-01T09:32:09;4.70;99.90
33927;DHT22;20485;50.992;5.550;2023-02-01T09:34:35;4.80;99.90
33927;DHT22;20485;50.992;5.550;2023-02-01T09:37:01;4.70;99.90
33927;DHT22;20485;50.992;5.550;2023-02-01T09:39:28;4.70;99.90
33927;DHT22;20485;50.992;5.550;2023-02-01T09:47:23;4.60;99.90
33927;DHT22;20485;50.992;5.550;2023-02-01T09:50:04;4.60;99.90
33927;DHT22;20485;50.992;5.550;2023-02-01T09:52:42;4.70;99.90
33927;DHT22;20485;50.992;5.550;2023-02-01T09:55:20;4.70;99.90
33927;DHT22;20485;50.992;5.550;2023-02-01T09:58:04;4.70;99.90
33927;DHT22;20485;50.992;5.550;2023-02-01T10:00:37;4.80;99.90
33927;DHT22;20485;50.992;5.550;2023-02-01T10:03:04;4.90;99.90
33927;DHT22;20485;50.992;5.550;2023-02-01T10:10:59;5.00;99.90
33927;DHT22;20485;50.992;5.550;2023-02-01T10:16:16;5.10;99.90
33927;DHT22;20485;50.992;5.550;2023-02-01T10:19:06;5.10;99.90
33927;DHT22;20485;50.992;5.550;2023-02-01T10:27:20;5.20;99.90
33927;DHT22;20485;50.992;5.550;2023-02-01T10:30:33;5.30;99.90
33927;DHT22;20485;50.992;5.550;2023-02-01T10:32:34;5.40;99.90
33927;DHT22;20485;50.992;5.550;2023-02-01T10:35:17;5.40;99.90
33927;DHT22;20485;50.992;5.550;2023-02-01T10:37:44;5.40;99.90
33927;DHT22;20485;50.992;5.550;2023-02-01T10:40:21;5.50;99.90
33927;DHT22;20485;50.992;5.550;2023-02-01T10:42:51;5.50;99.90
33927;DHT22;20485;50.992;5.550;2023-02-01T10:45:20;5.60;99.90
33927;DHT22;20485;50.992;5.550;2023-02-01T10:47:48;5.80;99.90
33927;DHT22;20485;50.992;5.550;2023-02-01T10:52:48;5.80;99.90
33927;DHT22;20485;50.992;5.550;2023-02-01T10:55:30;5.80;99.90
33927;DHT22;20485;50.992;5.550;2023-02-01T10:58:02;6.00;99.90
33927;DHT22;20485;50.992;5.550;2023-02-01T11:00:53;6.20;99.90
33927;DHT22;20485;50.992;5.550;2023-02-01T11:03:32;6.40;99.90
33927;DHT22;20485;50.992;5.550;2023-02-01T11:06:01;6.50;99.90
33927;DHT22;20485;50.992;5.550;2023-02-01T11:08:29;6.50;99.90
33927;DHT22;20485;50.992;5.550;2023-02-01T11:11:01;6.60;99.90
33927;DHT22;20485;50.992;5.550;2023-02-01T11:13:30;6.70;99.90
33927;DHT22;20485;50.992;5.550;2023-02-01T11:16:04;6.70;99.90
33927;DHT22;20485;50.992;5.550;2023-02-01T11:18:36;6.90;99.90
33927;DHT22;20485;50.992;5.550;2023-02-01T11:21:04;7.10;99.90
33927;DHT22;20485;50.992;5.550;2023-02-01T11:23:33;7.10;99.90
33927;DHT22;20485;50.992;5.550;2023-02-01T11:26:02;7.20;99.90
33927;DHT22;20485;50.992;5.550;2023-02-01T11:28:39;7.20;99.90
33927;DHT22;20485;50.992;5.550;2023-02-01T11:31:09;7.10;99.90
33927;DHT22;20485;50.992;5.550;2023-02-01T11:33:37;7.10;99.90
33927;DHT22;20485;50.992;5.550;2023-02-01T11:36:19;7.10;99.90
33927;DHT22;20485;50.992;5.550;2023-02-01T11:38:52;7.10;99.90
33927;DHT22;20485;50.992;5.550;2023-02-01T11:41:27;7.10;99.90
33927;DHT22;20485;50.992;5.550;2023-02-01T11:43:59;7.10;99.90
33927;DHT22;20485;50.992;5.550;2023-02-01T11:46:34;7.10;99.90
33927;DHT22;20485;50.992;5.550;2023-02-01T11:49:29;7.10;99.90
33927;DHT22;20485;50.992;5.550;2023-02-01T12:01:37;7.20;99.90
33927;DHT22;20485;50.992;5.550;2023-02-01T12:04:40;7.30;99.90
33927;DHT22;20485;50.992;5.550;2023-02-01T12:07:19;7.30;99.90
33927;DHT22;20485;50.992;5.550;2023-02-01T12:10:02;7.30;99.90
33927;DHT22;20485;50.992;5.550;2023-02-01T12:15:40;7.30;99.90
33927;DHT22;20485;50.992;5.550;2023-02-01T12:18:30;7.30;99.90
33927;DHT22;20485;50.992;5.550;2023-02-01T12:42:43;7.20;99.90
33927;DHT22;20485;50.992;5.550;2023-02-01T12:45:26;7.30;99.90
33927;DHT22;20485;50.992;5.550;2023-02-01T12:50:53;7.30;99.90
33927;DHT22;20485;50.992;5.550;2023-02-01T12:56:25;7.30;99.90
33927;DHT22;20485;50.992;5.550;2023-02-01T12:58:55;7.30;99.90
33927;DHT22;20485;50.992;5.550;2023-02-01T13:01:39;7.30;99.90
33927;DHT22;20485;50.992;5.550;2023-02-01T13:06:59;7.20;99.90
33927;DHT22;20485;50.992;5.550;2023-02-01T13:09:49;7.20;99.90
33927;DHT22;20485;50.992;5.550;2023-02-01T13:12:28;7.20;99.90
33927;DHT22;20485;50.992;5.550;2023-02-01T13:15:46;7.20;99.90
33927;DHT22;20485;50.992;5.550;2023-02-01T13:17:54;7.20;99.90
33927;DHT22;20485;50.992;5.550;2023-02-01T13:22:58;7.20;99.90
33927;DHT22;20485;50.992;5.550;2023-02-01T13:25:47;7.30;99.90
33927;DHT22;20485;50.992;5.550;2023-02-01T13:28:44;7.30;99.90
33927;DHT22;20485;50.992;5.550;2023-02-01T13:31:51;7.30;99.90
33927;DHT22;20485;50.992;5.550;2023-02-01T13:34:36;7.30;99.90
33927;DHT22;20485;50.992;5.550;2023-02-01T13:40:24;7.30;99.90
33927;DHT22;20485;50.992;5.550;2023-02-01T13:42:55;7.30;99.90
33927;DHT22;20485;50.992;5.550;2023-02-01T13:45:28;7.30;99.90
33927;DHT22;20485;50.992;5.550;2023-02-01T13:47:57;7.40;99.90
33927;DHT22;20485;50.992;5.550;2023-02-01T13:50:29;7.30;99.90
33927;DHT22;20485;50.992;5.550;2023-02-01T13:53:21;7.30;99.90
33927;DHT22;20485;50.992;5.550;2023-02-01T13:55:51;7.30;99.90
33927;DHT22;20485;50.992;5.550;2023-02-01T13:58:22;7.30;99.90
33927;DHT22;20485;50.992;5.550;2023-02-01T14:01:31;7.30;99.90
33927;DHT22;20485;50.992;5.550;2023-02-01T14:03:45;7.40;99.90
33927;DHT22;20485;50.992;5.550;2023-02-01T14:06:36;7.40;99.90
33927;DHT22;20485;50.992;5.550;2023-02-01T14:11:54;7.50;99.90
33927;DHT22;20485;50.992;5.550;2023-02-01T14:19:27;7.60;99.90
33927;DHT22;20485;50.992;5.550;2023-02-01T14:21:57;7.60;99.90
33927;DHT22;20485;50.992;5.550;2023-02-01T14:24:29;7.60;99.90
33927;DHT22;20485;50.992;5.550;2023-02-01T14:26:58;7.60;99.90
33927;DHT22;20485;50.992;5.550;2023-02-01T14:29:36;7.60;99.90
33927;DHT22;20485;50.992;5.550;2023-02-01T14:32:21;7.70;99.90
33927;DHT22;20485;50.992;5.550;2023-02-01T14:44:47;7.60;99.90
33927;DHT22;20485;50.992;5.550;2023-02-01T14:49:58;7.60;99.90
33927;DHT22;20485;50.992;5.550;2023-02-01T14:52:34;7.60;99.90
33927;DHT22;20485;50.992;5.550;2023-02-01T14:55:10;7.60;99.90
33927;DHT22;20485;50.992;5.550;2023-02-01T14:57:39;7.50;99.90
33927;DHT22;20485;50.992;5.550;2023-02-01T15:00:16;7.50;99.90
33927;DHT22;20485;50.992;5.550;2023-02-01T15:02:43;7.60;99.90
33927;DHT22;20485;50.992;5.550;2023-02-01T15:05:29;7.60;99.90
33927;DHT22;20485;50.992;5.550;2023-02-01T15:07:58;7.60;99.90
33927;DHT22;20485;50.992;5.550;2023-02-01T15:10:25;7.50;99.90
33927;DHT22;20485;50.992;5.550;2023-02-01T15:12:51;7.50;99.90
33927;DHT22;20485;50.992;5.550;2023-02-01T15:15:22;7.50;99.90
33927;DHT22;20485;50.992;5.550;2023-02-01T15:17:56;7.50;99.90
33927;DHT22;20485;50.992;5.550;2023-02-01T15:20:27;7.50;99.90
33927;DHT22;20485;50.992;5.550;2023-02-01T15:25:32;7.50;99.90
33927;DHT22;20485;50.992;5.550;2023-02-01T15:28:00;7.50;99.90
33927;DHT22;20485;50.992;5.550;2023-02-01T15:30:30;7.50;99.90
33927;DHT22;20485;50.992;5.550;2023-02-01T15:33:16;7.50;99.90
33927;DHT22;20485;50.992;5.550;2023-02-01T15:35:45;7.50;99.90
33927;DHT22;20485;50.992;5.550;2023-02-01T15:43:23;7.60;99.90
33927;DHT22;20485;50.992;5.550;2023-02-01T15:45:50;7.50;99.90
33927;DHT22;20485;50.992;5.550;2023-02-01T15:48:22;7.50;99.90
33927;DHT22;20485;50.992;5.550;2023-02-01T15:50:51;7.50;99.90
33927;DHT22;20485;50.992;5.550;2023-02-01T15:53:22;7.60;99.90
33927;DHT22;20485;50.992;5.550;2023-02-01T15:55:53;7.50;99.90
33927;DHT22;20485;50.992;5.550;2023-02-01T15:58:21;7.50;99.90
33927;DHT22;20485;50.992;5.550;2023-02-01T16:03:39;7.50;99.90
33927;DHT22;20485;50.992;5.550;2023-02-01T16:11:28;7.40;99.90
33927;DHT22;20485;50.992;5.550;2023-02-01T16:14:02;7.40;99.90
33927;DHT22;20485;50.992;5.550;2023-02-01T16:16:29;7.30;99.90
33927;DHT22;20485;50.992;5.550;2023-02-01T16:18:55;7.30;99.90
